Time;durP1;ratioP1;P1;durP2;ratioP2;P2;SDS_P1;SDS_P2;PMS_P1;PMS_P2;Temp;Humidity;BMP_temperature;BMP_pressure;BME280_temperature;BME280_humidity;BME280_pressure;Samples;Min_cycle;Max_cycle;Signal;HPM_P1;HPM_P2
2022/09/09 00:00:38;;;;;;;2.38;2.10;;;;;;;;;;5044455;28;24504;-47
2022/09/09 00:03:06;;;;;;;2.55;1.92;;;;;;;;;;5033823;28;24504;-47
2022/09/09 00:05:34;;;;;;;2.22;2.13;;;;;;;;;;5042007;28;24520;-46
2022/09/09 00:08:01;;;;;;;2.10;2.00;;;;;;;;;;5048644;28;25243;-45
2022/09/09 00:10:29;;;;;;;3.40;2.58;;;;;;;;;;5039405;28;24469;-48
2022/09/09 00:13:18;;;;;;;2.30;2.20;;;;;;;;;;5041788;28;24427;-47
2022/09/09 00:15:54;;;;;;;2.38;2.28;;;;;;;;;;5040251;28;24509;-46
2022/09/09 00:18:24;;;;;;;2.20;2.10;;;;;;;;;;5043977;28;24531;-47
2022/09/09 00:20:55;;;;;;;2.40;2.20;;;;;;;;;;5044341;28;24538;-46
2022/09/09 00:23:27;;;;;;;2.28;2.08;;;;;;;;;;5046661;28;24778;-46
2022/09/09 00:26:02;;;;;;;2.85;2.20;;;;;;;;;;5039464;28;24443;-46
2022/09/09 00:28:32;;;;;;;2.60;2.50;;;;;;;;;;5034326;28;24997;-46
2022/09/09 00:31:00;;;;;;;2.20;2.10;;;;;;;;;;5034457;28;24450;-46
2022/09/09 00:33:26;;;;;;;2.20;2.10;;;;;;;;;;5044063;28;24481;-47
2022/09/09 00:35:56;;;;;;;2.10;1.90;;;;;;;;;;5036917;28;24447;-45
2022/09/09 00:38:27;;;;;;;2.10;2.00;;;;;;;;;;5039986;28;24517;-46
2022/09/09 00:40:56;;;;;;;2.72;2.60;;;;;;;;;;5047105;28;24538;-47
2022/09/09 00:43:25;;;;;;;2.60;2.40;;;;;;;;;;5044465;28;24596;-46
2022/09/09 00:46:09;;;;;;;3.10;2.60;;;;;;;;;;5038472;28;24506;-47
2022/09/09 00:48:40;;;;;;;2.90;2.70;;;;;;;;;;5040312;28;24423;-45
2022/09/09 00:51:28;;;;;;;2.15;2.05;;;;;;;;;;5035914;28;24564;-47
2022/09/09 00:53:53;;;;;;;2.30;2.20;;;;;;;;;;5034640;28;24428;-46
2022/09/09 00:56:21;;;;;;;2.30;2.20;;;;;;;;;;5041317;28;24430;-47
2022/09/09 00:58:56;;;;;;;2.43;2.23;;;;;;;;;;5037116;28;25283;-46
2022/09/09 01:01:21;;;;;;;2.95;2.65;;;;;;;;;;5034610;28;24533;-45
2022/09/09 01:03:47;;;;;;;2.30;2.20;;;;;;;;;;5035938;28;24962;-47
2022/09/09 01:06:19;;;;;;;2.55;2.22;;;;;;;;;;5044180;28;24476;-46
2022/09/09 01:08:53;;;;;;;2.40;2.20;;;;;;;;;;5039671;28;24626;-46
2022/09/09 01:11:22;;;;;;;2.30;2.10;;;;;;;;;;5042474;28;24441;-49
2022/09/09 01:13:49;;;;;;;2.20;2.00;;;;;;;;;;5032639;28;24430;-47
2022/09/09 01:16:15;;;;;;;2.13;2.03;;;;;;;;;;5038266;28;24527;-47
2022/09/09 01:18:46;;;;;;;2.40;2.20;;;;;;;;;;5040224;28;24526;-47
2022/09/09 01:21:19;;;;;;;2.50;2.30;;;;;;;;;;5039797;28;24502;-45
2022/09/09 01:23:52;;;;;;;2.20;2.00;;;;;;;;;;5046200;28;24503;-45
2022/09/09 01:26:35;;;;;;;2.40;2.20;;;;;;;;;;5046637;28;24423;-46
2022/09/09 01:29:00;;;;;;;3.05;2.72;;;;;;;;;;5045571;28;24431;-46
2022/09/09 01:31:31;;;;;;;2.83;2.30;;;;;;;;;;5036303;28;25266;-47
2022/09/09 01:33:56;;;;;;;2.20;2.10;;;;;;;;;;5032929;28;24435;-47
2022/09/09 01:36:25;;;;;;;2.40;2.13;;;;;;;;;;5044272;28;24497;-47
2022/09/09 01:38:51;;;;;;;2.10;2.00;;;;;;;;;;5042459;28;24431;-45
2022/09/09 01:41:16;;;;;;;2.10;1.90;;;;;;;;;;5038063;28;24597;-46
2022/09/09 01:43:41;;;;;;;3.03;2.37;;;;;;;;;;5034362;28;24414;-47
2022/09/09 01:46:07;;;;;;;2.30;2.10;;;;;;;;;;5034087;28;24423;-47
2022/09/09 01:48:32;;;;;;;2.30;2.20;;;;;;;;;;5044086;28;24416;-48
2022/09/09 01:50:58;;;;;;;3.20;2.40;;;;;;;;;;5041688;28;24960;-46
2022/09/09 01:53:23;;;;;;;3.80;2.80;;;;;;;;;;5044154;28;24466;-46
2022/09/09 01:55:54;;;;;;;2.70;2.50;;;;;;;;;;5030521;28;24489;-46
2022/09/09 01:58:32;;;;;;;2.50;2.30;;;;;;;;;;5027762;28;24432;-47
2022/09/09 02:01:00;;;;;;;4.22;2.10;;;;;;;;;;5029495;28;24438;-47
2022/09/09 02:03:27;;;;;;;2.42;2.22;;;;;;;;;;5035620;28;24458;-46
2022/09/09 02:05:59;;;;;;;2.85;2.65;;;;;;;;;;5029814;28;24438;-46
2022/09/09 02:08:28;;;;;;;3.40;2.40;;;;;;;;;;5026792;28;24531;-46
2022/09/09 02:11:13;;;;;;;2.47;2.28;;;;;;;;;;5042575;28;24527;-46
2022/09/09 02:13:39;;;;;;;2.65;2.45;;;;;;;;;;5036474;28;25012;-46
2022/09/09 02:16:07;;;;;;;2.63;2.43;;;;;;;;;;5038671;28;24446;-46
2022/09/09 02:18:35;;;;;;;3.30;2.40;;;;;;;;;;5041900;28;25089;-50
2022/09/09 02:21:02;;;;;;;3.20;2.60;;;;;;;;;;5036465;28;24435;-45
2022/09/09 02:23:28;;;;;;;2.50;2.30;;;;;;;;;;5033740;28;24501;-45
2022/09/09 02:25:55;;;;;;;2.95;2.30;;;;;;;;;;5043656;28;24833;-45
2022/09/09 02:28:21;;;;;;;3.25;2.50;;;;;;;;;;5036739;28;24496;-45
2022/09/09 02:30:47;;;;;;;3.20;2.45;;;;;;;;;;5035464;28;24542;-46
2022/09/09 02:33:13;;;;;;;3.00;2.70;;;;;;;;;;5035279;28;24424;-46
2022/09/09 02:35:40;;;;;;;2.55;2.35;;;;;;;;;;5029569;28;24446;-45
2022/09/09 02:38:07;;;;;;;2.60;2.17;;;;;;;;;;5038572;28;24415;-44
2022/09/09 02:40:32;;;;;;;3.40;2.10;;;;;;;;;;5036781;28;24457;-44
2022/09/09 02:42:59;;;;;;;2.60;2.40;;;;;;;;;;5036395;28;24432;-43
2022/09/09 02:45:28;;;;;;;2.45;2.25;;;;;;;;;;5033822;28;24423;-44
2022/09/09 02:47:59;;;;;;;2.10;2.00;;;;;;;;;;5034750;28;25525;-44
2022/09/09 02:50:35;;;;;;;2.58;2.28;;;;;;;;;;5036503;28;24490;-45
2022/09/09 02:53:10;;;;;;;2.60;2.40;;;;;;;;;;5029464;28;24514;-45
2022/09/09 02:55:38;;;;;;;2.45;2.30;;;;;;;;;;5033944;28;24443;-44
2022/09/09 02:58:09;;;;;;;2.53;2.20;;;;;;;;;;5037313;28;24562;-45
2022/09/09 03:00:35;;;;;;;2.97;2.60;;;;;;;;;;5035463;28;24426;-45
2022/09/09 03:03:01;;;;;;;2.63;2.42;;;;;;;;;;5036735;28;24435;-46
2022/09/09 03:05:27;;;;;;;2.60;2.40;;;;;;;;;;5035142;28;24585;-45
2022/09/09 03:07:52;;;;;;;2.60;2.50;;;;;;;;;;5030837;28;24426;-45
2022/09/09 03:10:18;;;;;;;2.50;2.40;;;;;;;;;;5037699;28;24418;-45
2022/09/09 03:12:43;;;;;;;2.80;2.60;;;;;;;;;;5043164;28;25077;-45
2022/09/09 03:15:09;;;;;;;2.50;2.30;;;;;;;;;;5040516;28;24426;-46
2022/09/09 03:17:35;;;;;;;2.50;2.30;;;;;;;;;;5033575;28;24420;-45
2022/09/09 03:20:01;;;;;;;2.50;2.30;;;;;;;;;;5038379;28;24445;-45
2022/09/09 03:22:26;;;;;;;2.20;2.10;;;;;;;;;;5024884;28;24747;-46
2022/09/09 03:24:51;;;;;;;2.80;2.50;;;;;;;;;;5028338;28;24431;-45
2022/09/09 03:27:17;;;;;;;2.60;2.40;;;;;;;;;;5040040;28;24439;-46
2022/09/09 03:29:42;;;;;;;1.90;1.80;;;;;;;;;;5039034;28;24435;-45
2022/09/09 03:32:10;;;;;;;4.40;2.60;;;;;;;;;;5036910;28;25049;-45
2022/09/09 03:34:35;;;;;;;3.33;2.60;;;;;;;;;;5035005;28;24993;-45
2022/09/09 03:37:00;;;;;;;2.60;2.40;;;;;;;;;;5035505;28;24426;-46
2022/09/09 03:39:25;;;;;;;2.80;2.40;;;;;;;;;;5040550;28;24481;-46
2022/09/09 03:41:50;;;;;;;2.60;2.40;;;;;;;;;;5047519;28;24957;-46
2022/09/09 03:44:15;;;;;;;3.97;2.80;;;;;;;;;;5035318;28;24435;-46
2022/09/09 03:46:41;;;;;;;4.37;2.60;;;;;;;;;;5032074;28;24418;-47
2022/09/09 03:49:06;;;;;;;3.90;3.40;;;;;;;;;;5039666;28;24452;-46
2022/09/09 03:51:31;;;;;;;2.88;2.58;;;;;;;;;;5033803;28;24470;-46
2022/09/09 03:53:58;;;;;;;2.80;2.60;;;;;;;;;;5042991;28;25040;-45
2022/09/09 03:56:23;;;;;;;3.15;2.95;;;;;;;;;;5039140;28;24412;-46
2022/09/09 03:58:48;;;;;;;2.60;2.50;;;;;;;;;;5040994;28;25364;-46
2022/09/09 04:01:14;;;;;;;2.90;2.60;;;;;;;;;;5047756;28;24415;-46
2022/09/09 04:03:39;;;;;;;3.35;3.08;;;;;;;;;;5049203;28;24530;-47
2022/09/09 04:06:06;;;;;;;4.13;3.03;;;;;;;;;;5050653;28;24412;-47
2022/09/09 04:08:31;;;;;;;3.00;2.80;;;;;;;;;;5040515;28;25069;-47
2022/09/09 04:10:57;;;;;;;3.97;3.67;;;;;;;;;;5038439;28;24506;-45
2022/09/09 04:13:23;;;;;;;3.55;3.25;;;;;;;;;;5033516;28;25438;-45
2022/09/09 04:15:52;;;;;;;3.30;3.00;;;;;;;;;;5039880;28;24830;-44
2022/09/09 04:18:17;;;;;;;3.50;3.20;;;;;;;;;;5040832;28;24849;-45
2022/09/09 04:20:43;;;;;;;3.60;3.30;;;;;;;;;;5037955;28;24428;-46
2022/09/09 04:23:08;;;;;;;4.40;3.50;;;;;;;;;;5031727;28;24503;-46
2022/09/09 04:25:33;;;;;;;3.60;3.30;;;;;;;;;;5040220;28;24445;-46
2022/09/09 04:27:59;;;;;;;3.30;3.07;;;;;;;;;;5038306;28;24476;-46
2022/09/09 04:30:24;;;;;;;3.70;3.40;;;;;;;;;;5036928;28;24521;-47
2022/09/09 04:32:50;;;;;;;3.45;3.25;;;;;;;;;;5035877;28;24483;-46
2022/09/09 04:35:15;;;;;;;3.60;3.30;;;;;;;;;;5030145;28;25413;-46
2022/09/09 04:37:40;;;;;;;3.90;3.50;;;;;;;;;;5029643;28;24470;-47
2022/09/09 04:40:08;;;;;;;3.60;3.30;;;;;;;;;;5038965;28;24434;-47
2022/09/09 04:42:36;;;;;;;3.90;3.60;;;;;;;;;;5033698;28;24446;-46
2022/09/09 04:45:02;;;;;;;3.90;3.60;;;;;;;;;;5032443;28;24427;-47
2022/09/09 04:47:27;;;;;;;3.80;3.50;;;;;;;;;;5037270;28;25037;-46
2022/09/09 04:49:54;;;;;;;3.55;3.25;;;;;;;;;;5043137;28;24707;-47
2022/09/09 04:52:19;;;;;;;3.80;3.50;;;;;;;;;;5030488;28;25227;-48
2022/09/09 04:54:45;;;;;;;3.90;3.60;;;;;;;;;;5035404;28;24438;-47
2022/09/09 04:57:10;;;;;;;4.30;3.07;;;;;;;;;;5039282;28;24422;-47
2022/09/09 04:59:35;;;;;;;3.10;2.90;;;;;;;;;;5043270;28;24431;-47
2022/09/09 05:02:03;;;;;;;3.97;3.67;;;;;;;;;;5040945;28;24789;-47
2022/09/09 05:04:28;;;;;;;4.95;3.55;;;;;;;;;;5032487;28;24428;-47
2022/09/09 05:06:53;;;;;;;3.90;3.40;;;;;;;;;;5034667;28;24461;-48
2022/09/09 05:09:19;;;;;;;4.40;4.10;;;;;;;;;;5046700;28;24407;-44
2022/09/09 05:11:44;;;;;;;4.10;3.80;;;;;;;;;;5029813;28;24447;-45
2022/09/09 05:14:11;;;;;;;3.35;3.00;;;;;;;;;;5028830;28;24426;-46
2022/09/09 05:16:36;;;;;;;3.50;3.20;;;;;;;;;;5034200;28;24487;-45
2022/09/09 05:19:03;;;;;;;3.42;3.22;;;;;;;;;;5029191;28;24527;-46
2022/09/09 05:21:28;;;;;;;3.10;2.90;;;;;;;;;;5031849;28;24523;-45
2022/09/09 05:23:53;;;;;;;3.10;2.90;;;;;;;;;;5032258;28;25067;-46
2022/09/09 05:26:19;;;;;;;3.37;3.07;;;;;;;;;;5042056;28;24500;-47
2022/09/09 05:28:45;;;;;;;3.00;2.80;;;;;;;;;;5041141;28;25300;-46
2022/09/09 05:31:13;;;;;;;2.90;2.70;;;;;;;;;;5032667;28;24507;-47
2022/09/09 05:33:42;;;;;;;3.30;3.00;;;;;;;;;;5031000;28;25253;-46
2022/09/09 05:36:10;;;;;;;3.60;3.30;;;;;;;;;;5036285;28;24814;-46
2022/09/09 05:38:36;;;;;;;3.03;2.72;;;;;;;;;;5033720;28;24451;-47
2022/09/09 05:41:02;;;;;;;3.00;2.72;;;;;;;;;;5040146;28;24412;-52
2022/09/09 05:43:28;;;;;;;3.83;3.10;;;;;;;;;;5029893;28;24402;-46
2022/09/09 05:46:07;;;;;;;3.20;2.90;;;;;;;;;;5042422;28;24493;-45
2022/09/09 05:48:37;;;;;;;3.55;2.85;;;;;;;;;;5044514;28;24503;-46
2022/09/09 05:51:02;;;;;;;3.33;3.13;;;;;;;;;;5044846;28;24672;-48
2022/09/09 05:53:28;;;;;;;3.20;3.00;;;;;;;;;;5039306;28;24499;-46
2022/09/09 05:56:03;;;;;;;2.73;2.53;;;;;;;;;;5028322;28;24396;-46
2022/09/09 05:58:29;;;;;;;3.10;2.80;;;;;;;;;;5038978;28;24420;-46
2022/09/09 06:01:00;;;;;;;2.92;2.55;;;;;;;;;;5047726;28;24403;-46
2022/09/09 06:03:25;;;;;;;3.60;2.95;;;;;;;;;;5042483;28;24500;-46
2022/09/09 06:05:56;;;;;;;3.30;3.00;;;;;;;;;;5031348;28;24589;-46
2022/09/09 06:08:22;;;;;;;3.00;2.80;;;;;;;;;;5044206;28;24506;-46
2022/09/09 06:10:47;;;;;;;3.42;3.10;;;;;;;;;;5044921;28;24427;-47
2022/09/09 06:13:13;;;;;;;4.10;2.90;;;;;;;;;;5047882;28;24399;-47
2022/09/09 06:15:38;;;;;;;4.20;3.10;;;;;;;;;;5047916;28;24742;-47
2022/09/09 06:18:03;;;;;;;3.08;2.78;;;;;;;;;;5047482;28;24435;-47
2022/09/09 06:20:30;;;;;;;2.90;2.70;;;;;;;;;;5040352;28;24435;-46
2022/09/09 06:22:55;;;;;;;3.10;2.90;;;;;;;;;;5027467;28;24534;-45
2022/09/09 06:25:20;;;;;;;3.10;2.90;;;;;;;;;;5027761;28;25004;-45
2022/09/09 06:27:48;;;;;;;3.53;3.23;;;;;;;;;;5027712;28;24395;-45
2022/09/09 06:30:14;;;;;;;3.80;2.83;;;;;;;;;;5029039;28;24431;-46
2022/09/09 06:32:39;;;;;;;3.40;3.10;;;;;;;;;;5046178;28;24509;-46
2022/09/09 06:35:04;;;;;;;3.50;2.70;;;;;;;;;;5047044;28;24957;-47
2022/09/09 06:37:29;;;;;;;3.20;2.90;;;;;;;;;;5047990;28;24395;-46
2022/09/09 06:39:55;;;;;;;3.33;2.83;;;;;;;;;;5046674;28;24844;-46
2022/09/09 06:42:20;;;;;;;3.40;2.90;;;;;;;;;;5047909;28;24528;-46
2022/09/09 06:44:45;;;;;;;2.90;2.70;;;;;;;;;;5044645;28;24457;-46
2022/09/09 06:47:10;;;;;;;3.10;2.90;;;;;;;;;;5046062;28;24411;-47
2022/09/09 06:49:36;;;;;;;3.37;3.17;;;;;;;;;;5036521;28;24458;-46
2022/09/09 06:52:01;;;;;;;3.38;3.00;;;;;;;;;;5027276;28;24431;-46
2022/09/09 06:54:26;;;;;;;3.30;2.70;;;;;;;;;;5027423;28;24488;-46
2022/09/09 06:56:51;;;;;;;3.30;2.80;;;;;;;;;;5027328;28;24785;-47
2022/09/09 06:59:16;;;;;;;3.30;3.00;;;;;;;;;;5046686;28;24774;-47
2022/09/09 07:01:43;;;;;;;3.20;2.90;;;;;;;;;;5044997;28;24502;-46
2022/09/09 07:04:10;;;;;;;2.90;2.70;;;;;;;;;;5047202;28;25008;-47
2022/09/09 07:06:37;;;;;;;3.25;2.60;;;;;;;;;;5047099;28;24398;-47
2022/09/09 07:09:04;;;;;;;2.97;2.50;;;;;;;;;;5046991;28;24493;-46
2022/09/09 07:11:30;;;;;;;3.10;2.60;;;;;;;;;;5035661;28;24501;-47
2022/09/09 07:13:56;;;;;;;3.00;2.40;;;;;;;;;;5031739;28;24789;-47
2022/09/09 07:16:25;;;;;;;4.43;2.60;;;;;;;;;;5037723;28;24481;-47
2022/09/09 07:18:50;;;;;;;3.03;2.50;;;;;;;;;;5026912;28;24447;-47
2022/09/09 07:21:16;;;;;;;3.70;3.00;;;;;;;;;;5027249;28;24830;-47
2022/09/09 07:23:41;;;;;;;3.13;2.70;;;;;;;;;;5028501;28;24424;-47
2022/09/09 07:26:11;;;;;;;3.25;2.50;;;;;;;;;;5026718;28;24450;-48
2022/09/09 07:28:36;;;;;;;2.90;2.70;;;;;;;;;;5027051;28;24414;-48
2022/09/09 07:31:02;;;;;;;2.80;2.60;;;;;;;;;;5026942;28;24751;-47
2022/09/09 07:33:30;;;;;;;2.83;2.53;;;;;;;;;;5030636;28;24451;-48
2022/09/09 07:36:01;;;;;;;2.70;2.50;;;;;;;;;;5045434;28;24431;-48
2022/09/09 07:38:26;;;;;;;3.30;2.30;;;;;;;;;;5045285;28;24392;-45
2022/09/09 07:40:51;;;;;;;2.60;2.40;;;;;;;;;;5046117;28;24399;-46
2022/09/09 07:43:18;;;;;;;2.60;2.40;;;;;;;;;;5043955;28;24983;-45
2022/09/09 07:45:44;;;;;;;3.45;2.58;;;;;;;;;;5046375;28;24391;-48
2022/09/09 07:48:09;;;;;;;2.33;2.13;;;;;;;;;;5046111;28;24383;-45
2022/09/09 07:50:34;;;;;;;2.67;2.20;;;;;;;;;;5046974;28;24428;-45
2022/09/09 07:53:00;;;;;;;2.70;2.40;;;;;;;;;;5041351;28;24443;-44
2022/09/09 07:55:26;;;;;;;2.30;2.10;;;;;;;;;;5026686;28;24400;-46
2022/09/09 07:57:52;;;;;;;3.90;2.05;;;;;;;;;;5044475;28;24411;-47
2022/09/09 08:00:18;;;;;;;2.20;2.00;;;;;;;;;;5046910;28;24431;-47
2022/09/09 08:02:43;;;;;;;2.40;2.20;;;;;;;;;;5046079;28;24765;-46
2022/09/09 08:05:09;;;;;;;2.50;2.30;;;;;;;;;;5043440;28;24427;-47
2022/09/09 08:07:34;;;;;;;3.90;2.40;;;;;;;;;;5046358;28;24395;-47
2022/09/09 08:09:59;;;;;;;2.83;2.00;;;;;;;;;;5046265;28;24461;-47
2022/09/09 08:12:24;;;;;;;2.80;2.00;;;;;;;;;;5046209;28;24469;-47
2022/09/09 08:14:51;;;;;;;2.63;2.40;;;;;;;;;;5045333;28;24430;-47
2022/09/09 08:17:16;;;;;;;3.22;2.40;;;;;;;;;;5046638;28;24428;-46
2022/09/09 08:19:41;;;;;;;2.43;2.20;;;;;;;;;;5046010;28;24407;-47
2022/09/09 08:22:07;;;;;;;2.50;2.30;;;;;;;;;;5046580;28;24387;-47
2022/09/09 08:24:32;;;;;;;2.60;2.40;;;;;;;;;;5048172;28;24979;-47
2022/09/09 08:26:57;;;;;;;3.00;2.33;;;;;;;;;;5049172;28;24464;-47
2022/09/09 08:29:23;;;;;;;3.00;2.70;;;;;;;;;;5049969;28;25016;-47
2022/09/09 08:31:49;;;;;;;2.50;2.30;;;;;;;;;;5049605;28;24400;-47
2022/09/09 08:34:15;;;;;;;3.77;2.70;;;;;;;;;;5048575;28;24419;-47
2022/09/09 08:36:42;;;;;;;3.37;2.80;;;;;;;;;;5049396;28;24421;-47
2022/09/09 08:39:08;;;;;;;2.60;2.40;;;;;;;;;;5049496;28;24410;-47
2022/09/09 08:41:54;;;;;;;2.40;2.20;;;;;;;;;;5049212;28;24420;-47
2022/09/09 08:44:38;;;;;;;2.50;2.30;;;;;;;;;;5040519;28;24411;-48
2022/09/09 08:47:12;;;;;;;3.00;2.50;;;;;;;;;;5044879;28;24423;-48
2022/09/09 08:49:56;;;;;;;2.65;2.45;;;;;;;;;;5048215;28;24498;-47
2022/09/09 08:52:23;;;;;;;3.08;2.30;;;;;;;;;;5033376;28;24786;-47
2022/09/09 08:54:49;;;;;;;2.35;2.15;;;;;;;;;;5033538;28;25059;-47
2022/09/09 08:57:17;;;;;;;3.88;2.70;;;;;;;;;;5049413;28;24415;-47
2022/09/09 08:59:43;;;;;;;2.60;2.30;;;;;;;;;;5049348;28;24419;-47
2022/09/09 09:02:16;;;;;;;3.40;2.30;;;;;;;;;;5040747;28;24460;-47
2022/09/09 09:04:45;;;;;;;2.20;2.00;;;;;;;;;;5028188;28;24451;-45
2022/09/09 09:07:35;;;;;;;3.03;2.20;;;;;;;;;;5027284;28;24392;-48
2022/09/09 09:10:03;;;;;;;2.90;2.10;;;;;;;;;;5029133;28;24874;-48
2022/09/09 09:12:32;;;;;;;2.72;2.20;;;;;;;;;;5034438;28;24458;-48
2022/09/09 09:14:58;;;;;;;2.20;2.00;;;;;;;;;;5028686;28;24439;-47
2022/09/09 09:17:26;;;;;;;2.50;2.03;;;;;;;;;;5028956;28;24770;-47
2022/09/09 09:19:51;;;;;;;2.20;1.97;;;;;;;;;;5028586;28;24937;-48
2022/09/09 09:22:21;;;;;;;2.03;1.90;;;;;;;;;;5043005;28;24480;-45
2022/09/09 09:24:47;;;;;;;2.58;2.30;;;;;;;;;;5048803;28;24391;-46
2022/09/09 09:27:18;;;;;;;2.08;1.67;;;;;;;;;;5048354;28;24387;-47
2022/09/09 09:29:44;;;;;;;2.75;1.60;;;;;;;;;;5048648;28;24956;-47
2022/09/09 09:32:12;;;;;;;2.67;1.40;;;;;;;;;;5047469;28;24691;-47
2022/09/09 09:34:37;;;;;;;2.13;1.70;;;;;;;;;;5047665;28;24430;-46
2022/09/09 09:37:12;;;;;;;2.30;1.70;;;;;;;;;;5048119;28;24411;-47
2022/09/09 09:39:39;;;;;;;2.35;1.58;;;;;;;;;;5048585;28;24714;-46
2022/09/09 09:42:13;;;;;;;1.95;1.30;;;;;;;;;;5035520;28;24525;-47
2022/09/09 09:44:39;;;;;;;1.73;1.20;;;;;;;;;;5028718;28;24400;-47
2022/09/09 09:47:08;;;;;;;1.80;1.30;;;;;;;;;;5028237;28;24395;-46
2022/09/09 09:49:34;;;;;;;2.25;1.48;;;;;;;;;;5028381;28;24503;-46
2022/09/09 09:52:03;;;;;;;2.13;1.60;;;;;;;;;;5034781;28;24518;-47
2022/09/09 09:54:29;;;;;;;2.78;1.75;;;;;;;;;;5045414;28;24440;-48
2022/09/09 09:56:54;;;;;;;2.38;1.77;;;;;;;;;;5047683;28;24941;-47
2022/09/09 09:59:21;;;;;;;1.50;1.40;;;;;;;;;;5048159;28;24485;-47
2022/09/09 10:01:46;;;;;;;2.70;1.90;;;;;;;;;;5048308;28;24407;-47
2022/09/09 10:04:16;;;;;;;2.20;1.60;;;;;;;;;;5035505;28;24770;-47
2022/09/09 10:06:41;;;;;;;2.00;1.40;;;;;;;;;;5027733;28;24946;-46
2022/09/09 10:09:24;;;;;;;1.60;1.30;;;;;;;;;;5027532;28;24435;-47
2022/09/09 10:12:06;;;;;;;2.70;1.50;;;;;;;;;;5028039;28;24450;-47
2022/09/09 10:14:50;;;;;;;3.10;1.60;;;;;;;;;;5039001;28;24411;-47
2022/09/09 10:17:19;;;;;;;2.33;1.80;;;;;;;;;;5047267;28;24821;-47
2022/09/09 10:20:15;;;;;;;1.90;1.60;;;;;;;;;;5047553;28;24504;-48
2022/09/09 10:22:45;;;;;;;3.22;1.75;;;;;;;;;;5046698;28;24419;-47
2022/09/09 10:25:36;;;;;;;4.20;1.80;;;;;;;;;;5047405;28;24434;-47
2022/09/09 10:28:10;;;;;;;2.00;1.80;;;;;;;;;;5047092;28;24754;-48
2022/09/09 10:30:54;;;;;;;2.10;1.90;;;;;;;;;;5047358;28;24491;-47
2022/09/09 10:33:27;;;;;;;2.25;1.60;;;;;;;;;;5028950;28;24481;-47
2022/09/09 10:36:13;;;;;;;2.08;1.85;;;;;;;;;;5027400;28;25004;-47
2022/09/09 10:38:43;;;;;;;2.53;1.80;;;;;;;;;;5027497;28;24399;-46
2022/09/09 10:41:11;;;;;;;2.10;1.77;;;;;;;;;;5027775;28;24392;-47
2022/09/09 10:43:53;;;;;;;1.90;1.50;;;;;;;;;;5044665;28;24415;-46
2022/09/09 10:46:28;;;;;;;2.20;2.00;;;;;;;;;;5044403;28;24426;-47
2022/09/09 10:49:04;;;;;;;2.10;1.90;;;;;;;;;;5033292;28;24976;-49
2022/09/09 10:51:47;;;;;;;1.70;1.60;;;;;;;;;;5027120;28;24396;-47
2022/09/09 10:54:35;;;;;;;2.77;1.77;;;;;;;;;;5045475;28;24438;-47
2022/09/09 10:57:06;;;;;;;2.33;1.90;;;;;;;;;;5046990;28;24433;-47
2022/09/09 10:59:34;;;;;;;1.90;1.50;;;;;;;;;;5047282;28;24484;-46
2022/09/09 11:02:04;;;;;;;2.17;1.98;;;;;;;;;;5046712;28;24411;-48
2022/09/09 11:04:33;;;;;;;1.90;1.80;;;;;;;;;;5045937;28;24443;-45
2022/09/09 11:07:03;;;;;;;3.20;1.80;;;;;;;;;;5046883;28;24956;-47
2022/09/09 11:09:30;;;;;;;1.80;1.70;;;;;;;;;;5047003;28;24734;-47
2022/09/09 11:11:58;;;;;;;4.85;1.98;;;;;;;;;;5046557;28;25019;-46
2022/09/09 11:14:24;;;;;;;2.90;1.70;;;;;;;;;;5045625;28;24431;-47
2022/09/09 11:16:51;;;;;;;1.65;1.40;;;;;;;;;;5046358;28;24427;-47
2022/09/09 11:19:24;;;;;;;2.60;1.77;;;;;;;;;;5046360;28;24414;-46
2022/09/09 11:21:51;;;;;;;1.88;1.60;;;;;;;;;;5046560;28;24396;-47
2022/09/09 11:24:17;;;;;;;2.33;1.50;;;;;;;;;;5035933;28;25213;-46
2022/09/09 11:26:46;;;;;;;2.53;1.63;;;;;;;;;;5026840;28;24384;-47
2022/09/09 11:29:34;;;;;;;2.15;1.80;;;;;;;;;;5026555;28;24514;-47
2022/09/09 11:32:02;;;;;;;3.47;1.70;;;;;;;;;;5040516;28;24426;-46
2022/09/09 11:34:27;;;;;;;3.70;1.88;;;;;;;;;;5046319;28;25026;-47
2022/09/09 11:36:53;;;;;;;2.70;1.60;;;;;;;;;;5046614;28;24438;-47
2022/09/09 11:39:24;;;;;;;2.10;1.60;;;;;;;;;;5046697;28;24422;-47
2022/09/09 11:41:49;;;;;;;3.15;2.17;;;;;;;;;;5046039;28;24502;-48
2022/09/09 11:44:26;;;;;;;2.63;2.43;;;;;;;;;;5046300;28;24491;-47
2022/09/09 11:46:51;;;;;;;2.67;2.17;;;;;;;;;;5046471;28;24403;-48
2022/09/09 11:49:28;;;;;;;3.60;2.45;;;;;;;;;;5046497;28;24460;-45
2022/09/09 11:51:54;;;;;;;2.55;1.98;;;;;;;;;;5039786;28;24446;-48
2022/09/09 11:54:30;;;;;;;2.10;1.80;;;;;;;;;;5026480;28;24450;-48
2022/09/09 11:56:56;;;;;;;2.20;1.83;;;;;;;;;;5026830;28;24403;-48
2022/09/09 11:59:25;;;;;;;4.00;1.60;;;;;;;;;;5030301;28;24416;-48
2022/09/09 12:01:56;;;;;;;2.30;1.80;;;;;;;;;;5031143;28;24427;-48
2022/09/09 12:04:24;;;;;;;2.75;1.95;;;;;;;;;;5029285;28;24418;-48
2022/09/09 12:06:55;;;;;;;1.92;1.80;;;;;;;;;;5030394;28;24384;-47
2022/09/09 12:09:25;;;;;;;2.70;1.90;;;;;;;;;;5030649;28;24770;-48
2022/09/09 12:11:51;;;;;;;3.58;2.00;;;;;;;;;;5030456;28;24941;-47
2022/09/09 12:14:36;;;;;;;3.40;1.70;;;;;;;;;;5049368;28;24419;-47
2022/09/09 12:17:16;;;;;;;2.00;1.80;;;;;;;;;;5049980;28;24396;-47
2022/09/09 12:19:42;;;;;;;1.92;1.80;;;;;;;;;;5049758;28;24418;-48
2022/09/09 12:22:22;;;;;;;1.90;1.80;;;;;;;;;;5048429;28;24837;-48
2022/09/09 12:24:53;;;;;;;2.10;1.90;;;;;;;;;;5049070;28;25065;-48
2022/09/09 12:27:23;;;;;;;2.20;2.00;;;;;;;;;;5049711;28;24487;-48
2022/09/09 12:29:55;;;;;;;3.33;1.77;;;;;;;;;;5047949;28;24524;-48
2022/09/09 12:32:22;;;;;;;2.13;1.60;;;;;;;;;;5037945;28;24419;-48
2022/09/09 12:34:51;;;;;;;2.00;1.90;;;;;;;;;;5029644;28;24990;-47
2022/09/09 12:37:35;;;;;;;2.45;1.95;;;;;;;;;;5034324;28;25074;-47
2022/09/09 12:40:02;;;;;;;2.90;1.85;;;;;;;;;;5050050;28;24703;-48
2022/09/09 12:42:28;;;;;;;2.83;1.90;;;;;;;;;;5049807;28;24399;-48
2022/09/09 12:44:57;;;;;;;2.13;1.70;;;;;;;;;;5057061;28;24453;-47
2022/09/09 12:47:25;;;;;;;1.80;1.70;;;;;;;;;;5049524;28;24395;-47
2022/09/09 12:49:51;;;;;;;2.10;1.90;;;;;;;;;;5049694;28;24456;-48
2022/09/09 12:52:24;;;;;;;1.70;1.60;;;;;;;;;;5047447;28;24387;-47
2022/09/09 12:54:51;;;;;;;2.30;1.60;;;;;;;;;;5037638;28;24422;-48
2022/09/09 12:57:17;;;;;;;3.17;1.90;;;;;;;;;;5043569;28;24423;-47
2022/09/09 12:59:44;;;;;;;2.30;1.90;;;;;;;;;;5032469;28;24427;-47
2022/09/09 13:02:23;;;;;;;1.63;1.53;;;;;;;;;;5032256;28;24407;-47
2022/09/09 13:04:50;;;;;;;2.80;1.70;;;;;;;;;;5038012;28;24431;-47
2022/09/09 13:07:16;;;;;;;2.00;1.70;;;;;;;;;;5032770;28;24451;-48
2022/09/09 13:09:41;;;;;;;1.58;1.48;;;;;;;;;;5034241;28;24459;-47
2022/09/09 13:12:10;;;;;;;1.90;1.80;;;;;;;;;;5029576;28;24435;-48
2022/09/09 13:14:37;;;;;;;2.58;1.92;;;;;;;;;;5040006;28;24518;-46
2022/09/09 13:17:03;;;;;;;2.63;1.70;;;;;;;;;;5047698;28;24416;-48
2022/09/09 13:19:35;;;;;;;2.80;1.73;;;;;;;;;;5035045;28;24434;-47
2022/09/09 13:22:12;;;;;;;2.93;2.00;;;;;;;;;;5031622;28;24423;-47
2022/09/09 13:24:37;;;;;;;2.10;1.90;;;;;;;;;;5037948;28;24481;-47
2022/09/09 13:27:03;;;;;;;2.07;1.87;;;;;;;;;;5028796;28;24403;-47
2022/09/09 13:29:29;;;;;;;2.10;1.90;;;;;;;;;;5040889;28;24427;-48
2022/09/09 13:32:03;;;;;;;2.40;2.00;;;;;;;;;;5047229;28;24485;-47
2022/09/09 13:34:30;;;;;;;2.08;1.80;;;;;;;;;;5048543;28;24454;-47
2022/09/09 13:36:59;;;;;;;2.05;1.85;;;;;;;;;;5045835;28;25035;-47
2022/09/09 13:39:24;;;;;;;1.98;1.58;;;;;;;;;;5048298;28;24450;-48
2022/09/09 13:41:49;;;;;;;1.90;1.67;;;;;;;;;;5048778;28;24427;-48
2022/09/09 13:44:19;;;;;;;3.50;1.93;;;;;;;;;;5048275;28;24445;-48
2022/09/09 13:46:44;;;;;;;2.10;1.90;;;;;;;;;;5046320;28;25006;-47
2022/09/09 13:49:09;;;;;;;2.40;1.70;;;;;;;;;;5047339;28;24423;-48
2022/09/09 13:51:42;;;;;;;2.00;1.58;;;;;;;;;;5048841;28;24420;-48
2022/09/09 13:54:11;;;;;;;1.75;1.65;;;;;;;;;;5048256;28;24818;-48
2022/09/09 13:56:38;;;;;;;1.70;1.58;;;;;;;;;;5048496;28;24507;-47
2022/09/09 13:59:04;;;;;;;1.70;1.60;;;;;;;;;;5048157;28;24523;-48
2022/09/09 14:01:29;;;;;;;1.90;1.70;;;;;;;;;;5048619;28;24460;-47
2022/09/09 14:03:54;;;;;;;1.60;1.50;;;;;;;;;;5047962;28;24945;-48
2022/09/09 14:06:21;;;;;;;1.60;1.27;;;;;;;;;;5048334;28;24388;-47
2022/09/09 14:08:47;;;;;;;2.55;1.70;;;;;;;;;;5048091;28;25005;-47
2022/09/09 14:11:12;;;;;;;1.90;1.30;;;;;;;;;;5047802;28;24526;-48
2022/09/09 14:13:37;;;;;;;1.60;1.50;;;;;;;;;;5047791;28;24490;-48
2022/09/09 14:16:02;;;;;;;2.90;1.80;;;;;;;;;;5037960;28;24500;-49
2022/09/09 14:18:27;;;;;;;1.50;1.40;;;;;;;;;;5047557;28;24972;-49
2022/09/09 14:20:53;;;;;;;1.90;1.30;;;;;;;;;;5045736;28;24422;-46
2022/09/09 14:23:18;;;;;;;2.08;1.30;;;;;;;;;;5046251;28;24461;-45
2022/09/09 14:25:43;;;;;;;1.65;1.55;;;;;;;;;;5045302;28;24753;-45
2022/09/09 14:28:10;;;;;;;2.33;1.60;;;;;;;;;;5046470;28;24402;-46
2022/09/09 14:30:36;;;;;;;1.47;1.37;;;;;;;;;;5043765;28;25059;-46
2022/09/09 14:33:02;;;;;;;2.50;1.70;;;;;;;;;;5044332;28;24945;-46
2022/09/09 14:35:27;;;;;;;1.93;1.60;;;;;;;;;;5046193;28;24430;-46
2022/09/09 14:37:53;;;;;;;2.10;1.50;;;;;;;;;;5028712;28;24427;-48
2022/09/09 14:40:18;;;;;;;2.05;1.30;;;;;;;;;;5027675;28;24502;-47
2022/09/09 14:42:43;;;;;;;1.60;1.30;;;;;;;;;;5027186;28;24384;-48
2022/09/09 14:45:09;;;;;;;1.60;1.23;;;;;;;;;;5032392;28;24961;-48
2022/09/09 14:47:34;;;;;;;1.60;1.50;;;;;;;;;;5042824;28;24496;-47
2022/09/09 14:50:00;;;;;;;2.10;1.20;;;;;;;;;;5047424;28;24822;-47